Time;durP1;ratioP1;P1;durP2;ratioP2;P2;SDS_P1;SDS_P2;PMS_P1;PMS_P2;Temp;Humidity;BMP_temperature;BMP_pressure;BME280_temperature;BME280_humidity;BME280_pressure;Samples;Min_cycle;Max_cycle;Signal;HPM_P1;HPM_P2
2022/12/12 00:00:08;;;;;;;34.13;24.45;;;;;;;2.09;67.11;100517.19;672398;29;1022;-82
2022/12/12 00:00:34;;;;;;;33.33;24.33;;;;;;;1.99;67.23;100500.31;676307;29;1031;-82
2022/12/12 00:00:55;;;;;;;34.75;24.52;;;;;;;2.00;67.28;100506.34;675183;29;1259;-82
2022/12/12 00:01:27;;;;;;;33.83;24.30;;;;;;;2.10;67.74;100524.13;677603;29;1200;-82
2022/12/12 00:01:54;;;;;;;36.22;24.55;;;;;;;2.04;67.07;100516.91;677683;29;1272;-82
2022/12/12 00:02:14;;;;;;;37.72;25.52;;;;;;;2.02;67.24;100504.75;677616;29;1181;-83
2022/12/12 00:02:39;;;;;;;34.90;25.02;;;;;;;2.02;67.28;100515.06;677712;29;1297;-82
2022/12/12 00:03:00;;;;;;;33.10;24.83;;;;;;;1.96;67.72;100501.81;672555;29;971;-82
2022/12/12 00:03:21;;;;;;;34.10;25.02;;;;;;;2.03;67.48;100517.69;672405;29;1191;-82
2022/12/12 00:03:41;;;;;;;33.88;25.17;;;;;;;2.06;67.71;100518.69;677725;29;1288;-82
2022/12/12 00:04:03;;;;;;;34.65;24.65;;;;;;;1.97;67.45;100506.16;677846;29;1201;-82
2022/12/12 00:04:24;;;;;;;33.47;24.42;;;;;;;1.96;67.90;100501.81;682821;28;1036;-82
2022/12/12 00:04:44;;;;;;;35.83;25.53;;;;;;;1.99;67.22;100513.19;682992;29;1152;-82
2022/12/12 00:05:06;;;;;;;38.15;26.77;;;;;;;1.97;67.34;100514.78;682927;28;1077;-82
2022/12/12 00:05:27;;;;;;;39.28;26.80;;;;;;;1.97;67.26;100509.63;680220;29;1283;-82
2022/12/12 00:05:52;;;;;;;38.08;26.25;;;;;;;1.99;67.33;100507.13;675352;29;761;-82
2022/12/12 00:06:12;;;;;;;34.42;25.38;;;;;;;1.96;67.52;100502.69;677671;29;1107;-82
2022/12/12 00:06:33;;;;;;;34.70;26.00;;;;;;;2.05;67.39;100520.38;677660;29;1142;-83
2022/12/12 00:06:54;;;;;;;35.00;26.33;;;;;;;1.98;67.18;100505.38;682870;29;1257;-82
2022/12/12 00:07:14;;;;;;;35.83;25.80;;;;;;;1.96;67.64;100510.41;680265;29;1022;-82
2022/12/12 00:07:35;;;;;;;35.03;25.40;;;;;;;1.99;67.47;100512.28;680323;29;1142;-83
2022/12/12 00:08:07;;;;;;;35.40;25.50;;;;;;;2.01;67.29;100515.84;680331;29;1391;-82
2022/12/12 00:08:28;;;;;;;35.17;24.80;;;;;;;1.98;67.31;100511.41;680212;29;1049;-82
2022/12/12 00:08:49;;;;;;;34.78;24.13;;;;;;;2.00;67.69;100511.47;677756;29;1160;-82
2022/12/12 00:09:10;;;;;;;36.78;25.40;;;;;;;1.97;67.25;100512.22;675168;29;1065;-83
2022/12/12 00:09:30;;;;;;;38.22;26.17;;;;;;;1.98;67.05;100511.41;675001;29;1168;-82
2022/12/12 00:09:51;;;;;;;35.50;25.00;;;;;;;1.95;67.57;100506.06;680304;29;1114;-82
2022/12/12 00:10:12;;;;;;;34.33;24.40;;;;;;;2.01;66.89;100513.28;685525;28;1181;-82
2022/12/12 00:10:34;;;;;;;34.30;24.25;;;;;;;2.00;67.59;100509.81;682898;29;1244;-82
2022/12/12 00:10:54;;;;;;;35.20;25.08;;;;;;;2.02;67.37;100517.63;677816;29;968;-82
2022/12/12 00:11:16;;;;;;;33.50;24.30;;;;;;;2.05;67.33;100517.78;677581;29;1151;-82
2022/12/12 00:11:37;;;;;;;32.97;23.88;;;;;;;1.99;67.13;100507.13;675059;29;1053;-81
2022/12/12 00:11:58;;;;;;;32.83;23.75;;;;;;;2.01;66.90;100510.72;675236;29;828;-82
2022/12/12 00:12:19;;;;;;;34.63;24.85;;;;;;;1.99;67.40;100510.59;675036;29;1118;-82
2022/12/12 00:12:40;;;;;;;35.50;25.65;;;;;;;1.99;67.46;100508.03;675756;29;761;-82
2022/12/12 00:13:01;;;;;;;35.83;26.05;;;;;;;2.04;67.54;100521.16;677898;29;825;-82
2022/12/12 00:13:22;;;;;;;34.78;25.30;;;;;;;2.09;67.00;100522.34;680314;29;1116;-82
2022/12/12 00:13:43;;;;;;;34.92;25.33;;;;;;;2.06;67.36;100519.56;677815;29;840;-82
2022/12/12 00:14:04;;;;;;;36.15;25.92;;;;;;;2.03;66.96;100519.41;677640;29;1400;-82
2022/12/12 00:14:24;;;;;;;37.25;26.10;;;;;;;2.01;67.22;100509.00;677652;29;1051;-82
2022/12/12 00:14:45;;;;;;;36.60;26.00;;;;;;;2.04;67.25;100510.88;677926;29;722;-81
2022/12/12 00:15:06;;;;;;;37.73;26.10;;;;;;;2.03;67.59;100509.97;679243;29;1196;-82
2022/12/12 00:15:27;;;;;;;38.20;26.60;;;;;;;2.00;67.39;100507.22;677407;29;1903;-82
2022/12/12 00:15:48;;;;;;;38.50;26.30;;;;;;;2.07;66.98;100521.34;675035;29;1178;-82
2022/12/12 00:16:09;;;;;;;36.00;25.77;;;;;;;2.02;67.41;100510.78;674906;29;1154;-82
2022/12/12 00:16:30;;;;;;;34.03;25.38;;;;;;;2.08;66.99;100523.09;672297;29;1088;-82
2022/12/12 00:16:51;;;;;;;32.65;24.75;;;;;;;2.02;67.08;100515.91;674910;29;1159;-82
2022/12/12 00:17:11;;;;;;;33.47;24.80;;;;;;;2.01;67.08;100513.28;672532;29;1225;-82
2022/12/12 00:17:32;;;;;;;35.10;24.97;;;;;;;2.01;66.73;100508.13;672408;29;1263;-82
2022/12/12 00:17:53;;;;;;;38.00;26.05;;;;;;;1.97;67.12;100508.75;672598;29;1049;-82
2022/12/12 00:18:13;;;;;;;37.95;26.42;;;;;;;2.01;66.90;100515.84;680259;29;1170;-82
2022/12/12 00:18:38;;;;;;;37.53;26.25;;;;;;;2.00;67.50;100514.06;680341;28;1081;-82
2022/12/12 00:18:58;;;;;;;35.72;24.75;;;;;;;1.99;67.25;100509.72;680412;29;757;-82
2022/12/12 00:19:19;;;;;;;35.47;24.45;;;;;;;2.04;67.18;100518.59;677716;29;1128;-82
2022/12/12 00:19:42;;;;;;;35.67;25.30;;;;;;;2.03;66.96;100516.81;675140;29;894;-82
2022/12/12 00:20:04;;;;;;;37.17;25.95;;;;;;;2.01;67.43;100510.72;677695;29;1160;-82
2022/12/12 00:20:24;;;;;;;36.33;25.23;;;;;;;2.01;67.13;100516.72;677687;29;1031;-82
2022/12/12 00:20:50;;;;;;;37.47;25.13;;;;;;;2.00;67.10;100508.91;677823;29;818;-82
2022/12/12 00:21:20;;;;;;;34.38;24.70;;;;;;;2.12;66.72;100525.09;680272;29;1136;-82
2022/12/12 00:21:40;;;;;;;34.53;25.70;;;;;;;2.03;66.95;100509.97;682872;29;941;-82
2022/12/12 00:22:01;;;;;;;36.10;25.23;;;;;;;2.05;67.16;100512.66;675174;29;1309;-82
2022/12/12 00:22:22;;;;;;;37.50;25.45;;;;;;;2.13;66.98;100526.84;677553;29;1159;-82
2022/12/12 00:22:42;;;;;;;36.85;25.35;;;;;;;2.06;67.20;100514.41;677674;29;1353;-82
2022/12/12 00:23:03;;;;;;;37.90;26.33;;;;;;;2.04;66.71;100511.75;675019;29;1212;-82
2022/12/12 00:23:24;;;;;;;36.38;26.10;;;;;;;2.04;67.24;100505.72;677622;29;1180;-83
2022/12/12 00:23:45;;;;;;;38.08;26.73;;;;;;;2.12;67.11;100525.09;672446;29;1231;-82
2022/12/12 00:24:06;;;;;;;36.25;26.00;;;;;;;2.01;67.28;100506.44;675076;29;1172;-82
2022/12/12 00:24:26;;;;;;;36.00;25.45;;;;;;;1.99;67.25;100502.88;677483;29;1276;-82
2022/12/12 00:24:47;;;;;;;32.85;23.75;;;;;;;2.02;66.78;100512.47;672612;29;737;-82
2022/12/12 00:25:08;;;;;;;33.90;24.17;;;;;;;2.02;66.97;100512.47;677694;29;1309;-83
2022/12/12 00:25:28;;;;;;;33.63;24.55;;;;;;;2.08;67.37;100520.53;677583;29;1211;-82
2022/12/12 00:26:00;;;;;;;34.95;25.35;;;;;;;2.08;67.04;100515.38;680313;29;1170;-82
2022/12/12 00:26:30;;;;;;;35.30;25.20;;;;;;;2.06;66.88;100518.69;677623;29;1168;-82
2022/12/12 00:26:50;;;;;;;36.60;25.50;;;;;;;2.07;66.91;100526.50;674982;29;863;-82
2022/12/12 00:27:11;;;;;;;37.15;26.00;;;;;;;2.02;67.02;100509.91;677770;29;1076;-82
2022/12/12 00:27:32;;;;;;;37.67;26.20;;;;;;;2.02;66.91;100502.19;672433;29;1341;-82
2022/12/12 00:27:53;;;;;;;37.92;26.83;;;;;;;2.10;66.94;100525.78;675181;29;819;-82
2022/12/12 00:28:23;;;;;;;38.50;26.85;;;;;;;2.01;66.86;100514.16;674967;29;1124;-82
2022/12/12 00:28:44;;;;;;;36.33;25.80;;;;;;;2.06;66.99;100517.00;672486;29;1103;-82
2022/12/12 00:29:06;;;;;;;36.85;25.45;;;;;;;2.03;67.18;100514.25;674975;29;1198;-82
2022/12/12 00:29:27;;;;;;;36.65;25.42;;;;;;;2.03;66.96;100511.69;674907;29;1238;-82
2022/12/12 00:29:53;;;;;;;36.13;26.20;;;;;;;2.07;66.93;100520.47;677284;29;1155;-82
2022/12/12 00:30:14;;;;;;;35.35;26.50;;;;;;;2.11;66.72;100527.56;677696;29;1084;-82
2022/12/12 00:30:34;;;;;;;36.60;26.67;;;;;;;2.06;66.74;100518.69;677499;29;979;-82
2022/12/12 00:30:55;;;;;;;35.20;25.97;;;;;;;2.01;67.00;100511.56;677657;29;855;-82
2022/12/12 00:31:15;;;;;;;35.70;25.50;;;;;;;2.11;66.88;100530.13;677493;29;1267;-82
2022/12/12 00:31:36;;;;;;;35.58;25.45;;;;;;;2.01;66.89;100513.28;677571;29;1214;-82
2022/12/12 00:31:57;;;;;;;36.17;25.65;;;;;;;2.01;66.90;100521.00;669846;29;1308;-82
2022/12/12 00:32:18;;;;;;;37.30;26.20;;;;;;;2.04;67.15;100521.16;669845;29;1089;-82
2022/12/12 00:32:38;;;;;;;38.17;26.95;;;;;;;2.04;66.75;100518.59;675013;29;784;-82
2022/12/12 00:32:59;;;;;;;38.53;27.02;;;;;;;2.00;66.77;100521.78;677681;29;1116;-82
2022/12/12 00:33:21;;;;;;;36.45;26.13;;;;;;;2.03;66.66;100519.41;677473;29;1102;-82
2022/12/12 00:33:43;;;;;;;35.55;24.95;;;;;;;2.01;67.00;100519.31;677640;29;965;-82
2022/12/12 00:34:04;;;;;;;36.50;24.80;;;;;;;2.01;66.78;100521.00;680309;29;1036;-82
2022/12/12 00:34:24;;;;;;;37.70;25.75;;;;;;;1.99;67.16;100522.56;680821;28;1096;-82
2022/12/12 00:34:46;;;;;;;37.27;26.40;;;;;;;2.07;67.03;100531.63;680212;29;1149;-82
2022/12/12 00:35:06;;;;;;;36.55;26.73;;;;;;;2.01;67.05;100527.03;680186;29;1099;-82
2022/12/12 00:35:27;;;;;;;36.50;26.40;;;;;;;1.99;66.80;100518.34;674766;29;1911;-82
2022/12/12 00:35:53;;;;;;;37.33;25.77;;;;;;;2.03;66.94;100530.56;675089;29;1166;-82
2022/12/12 00:36:15;;;;;;;36.25;25.73;;;;;;;1.98;66.68;100515.66;677481;29;1216;-82
2022/12/12 00:36:36;;;;;;;35.80;25.80;;;;;;;2.00;67.03;100524.34;674846;29;1355;-82
2022/12/12 00:36:56;;;;;;;35.40;25.40;;;;;;;2.02;67.24;100526.22;674997;29;1040;-82
2022/12/12 00:37:17;;;;;;;37.95;26.23;;;;;;;2.00;66.66;100525.25;682850;29;1301;-82
2022/12/12 00:37:37;;;;;;;38.63;26.65;;;;;;;2.00;66.94;100527.81;682824;29;1273;-82
2022/12/12 00:37:58;;;;;;;38.50;27.23;;;;;;;2.09;66.69;100536.88;683058;28;1073;-82
2022/12/12 00:38:21;;;;;;;36.47;26.60;;;;;;;2.02;66.79;100520.19;682855;29;1215;-82
2022/12/12 00:38:41;;;;;;;36.15;26.23;;;;;;;2.09;67.02;100534.31;680096;29;1264;-82
2022/12/12 00:39:02;;;;;;;37.40;26.50;;;;;;;2.04;67.21;100523.75;675061;29;1182;-82
2022/12/12 00:39:23;;;;;;;38.30;26.63;;;;;;;2.00;66.84;100521.78;677424;29;1235;-82
2022/12/12 00:39:44;;;;;;;36.87;26.30;;;;;;;2.00;66.84;100519.19;675029;29;1060;-82
2022/12/12 00:40:05;;;;;;;35.13;25.63;;;;;;;2.01;66.68;100519.31;674883;29;1258;-82
2022/12/12 00:40:25;;;;;;;33.88;25.02;;;;;;;2.01;67.15;100526.16;674707;29;1373;-82
2022/12/12 00:40:46;;;;;;;35.67;25.50;;;;;;;2.01;66.89;100518.44;677558;29;1325;-81
2022/12/12 00:41:08;;;;;;;37.13;25.73;;;;;;;1.99;67.24;100514.84;674873;29;1070;-82
2022/12/12 00:41:28;;;;;;;38.13;26.38;;;;;;;2.07;66.81;100529.06;680003;29;1085;-83
2022/12/12 00:41:49;;;;;;;37.10;26.00;;;;;;;2.08;67.08;100522.25;685405;28;725;-82
2022/12/12 00:42:10;;;;;;;36.03;25.80;;;;;;;2.03;67.01;100521.97;685377;28;1048;-82
2022/12/12 00:42:31;;;;;;;37.55;26.30;;;;;;;2.04;66.74;100524.63;682635;29;986;-82
2022/12/12 00:42:51;;;;;;;38.65;26.77;;;;;;;2.01;66.54;100523.56;680132;29;1302;-81
2022/12/12 00:43:12;;;;;;;39.58;27.20;;;;;;;2.00;67.09;100514.06;682728;28;1289;-83
2022/12/12 00:43:33;;;;;;;38.90;27.23;;;;;;;1.99;67.04;100525.16;680026;29;1291;-82
2022/12/12 00:43:56;;;;;;;38.38;26.60;;;;;;;1.93;67.35;100517.06;680082;29;1365;-82
2022/12/12 00:44:17;;;;;;;36.97;26.23;;;;;;;1.97;67.03;100519.03;674744;29;1212;-82
2022/12/12 00:44:38;;;;;;;36.78;25.73;;;;;;;1.99;66.90;100520.91;679984;29;1215;-82
2022/12/12 00:44:59;;;;;;;36.65;26.08;;;;;;;1.97;66.89;100519.94;680060;29;816;-82
2022/12/12 00:45:20;;;;;;;37.40;26.58;;;;;;;2.00;67.19;100526.91;677287;29;1017;-82
2022/12/12 00:45:40;;;;;;;36.00;25.80;;;;;;;1.98;67.02;100520.81;682832;29;752;-83
2022/12/12 00:46:02;;;;;;;35.33;25.40;;;;;;;2.02;66.98;100527.91;680199;29;1059;-82
2022/12/12 00:46:24;;;;;;;35.80;25.25;;;;;;;2.01;66.98;100518.44;679920;29;988;-83
2022/12/12 00:46:44;;;;;;;37.47;26.10;;;;;;;2.00;67.18;100514.06;682444;29;1229;-82
2022/12/12 00:47:05;;;;;;;37.75;26.38;;;;;;;1.94;67.00;100508.56;680155;29;1083;-82
2022/12/12 00:47:25;;;;;;;39.27;26.97;;;;;;;1.99;66.96;100517.44;674741;29;1149;-82
2022/12/12 00:47:46;;;;;;;39.43;26.80;;;;;;;1.97;67.20;100517.34;674979;29;745;-83
2022/12/12 00:48:08;;;;;;;38.83;26.77;;;;;;;2.00;67.07;100519.19;674982;29;1251;-82
2022/12/12 00:48:29;;;;;;;38.70;26.30;;;;;;;1.99;66.98;100512.28;677135;29;1349;-82
2022/12/12 00:48:53;;;;;;;38.72;26.45;;;;;;;1.99;67.28;100517.44;677544;29;1122;-82
2022/12/12 00:49:13;;;;;;;37.53;25.85;;;;;;;1.97;67.34;100508.75;680140;29;970;-82
2022/12/12 00:49:34;;;;;;;38.50;26.52;;;;;;;2.00;67.29;100519.19;682894;28;1028;-82
2022/12/12 00:49:55;;;;;;;39.40;26.30;;;;;;;1.98;66.81;100518.22;680183;29;1148;-82
2022/12/12 00:50:15;;;;;;;39.08;26.85;;;;;;;1.98;67.15;100513.09;680052;29;1184;-83
2022/12/12 00:50:36;;;;;;;38.35;26.60;;;;;;;1.99;66.97;100520.00;677519;29;1118;-82
2022/12/12 00:50:57;;;;;;;37.23;26.03;;;;;;;1.97;67.24;100514.78;677730;29;952;-82
2022/12/12 00:51:20;;;;;;;37.47;25.77;;;;;;;1.98;67.32;100514.00;677597;29;1317;-82
2022/12/12 00:51:42;;;;;;;34.13;24.05;;;;;;;1.97;67.27;100513.88;677574;29;948;-82
2022/12/12 00:52:03;;;;;;;34.90;24.38;;;;;;;1.98;67.12;100520.81;680102;29;1238;-82
2022/12/12 00:52:24;;;;;;;35.88;24.50;;;;;;;2.03;66.93;100525.41;677373;29;1144;-83
2022/12/12 00:52:44;;;;;;;36.58;25.50;;;;;;;1.97;66.90;100522.50;677570;29;1337;-82
2022/12/12 00:53:05;;;;;;;37.50;26.10;;;;;;;1.97;67.10;100522.50;682805;28;1230;-82
2022/12/12 00:53:26;;;;;;;37.00;25.80;;;;;;;1.99;67.23;100528.63;680217;29;1058;-82
2022/12/12 00:53:47;;;;;;;37.88;26.27;;;;;;;2.05;67.09;100535.81;682805;29;1139;-82
2022/12/12 00:54:08;;;;;;;36.20;26.08;;;;;;;2.00;67.14;100526.91;682973;28;1082;-81
2022/12/12 00:54:29;;;;;;;36.25;26.15;;;;;;;1.96;67.15;100522.41;679971;29;1254;-82
2022/12/12 00:54:50;;;;;;;37.05;26.45;;;;;;;1.98;67.02;100532.00;677600;29;1141;-82
2022/12/12 00:55:11;;;;;;;37.92;26.63;;;;;;;2.04;67.25;100534.03;680208;29;1313;-82
2022/12/12 00:55:31;;;;;;;37.80;26.90;;;;;;;1.96;66.88;100528.44;680083;29;1906;-82
2022/12/12 00:55:58;;;;;;;36.97;26.40;;;;;;;1.90;66.86;100517.78;677582;29;1142;-82
2022/12/12 00:56:21;;;;;;;37.03;25.83;;;;;;;1.93;67.09;100517.06;680043;29;1082;-82
2022/12/12 00:56:42;;;;;;;37.90;25.98;;;;;;;1.92;67.37;100521.34;674806;29;1143;-82
2022/12/12 00:57:02;;;;;;;37.00;25.70;;;;;;;1.91;67.01;100517.84;675002;29;1071;-82
2022/12/12 00:57:23;;;;;;;37.38;25.92;;;;;;;1.98;67.21;100531.09;674943;29;1092;-82
2022/12/12 00:57:43;;;;;;;36.17;25.13;;;;;;;1.99;67.34;100527.72;677612;29;761;-82
2022/12/12 00:58:04;;;;;;;37.17;26.37;;;;;;;1.94;67.23;100518.88;677674;29;1043;-82
2022/12/12 00:58:25;;;;;;;37.03;26.23;;;;;;;1.93;67.23;100514.50;674775;29;1286;-82
2022/12/12 00:58:47;;;;;;;38.22;27.05;;;;;;;1.95;66.85;100516.34;675047;29;1255;-82
2022/12/12 00:59:08;;;;;;;38.75;27.00;;;;;;;1.91;66.93;100510.13;677566;29;1370;-82
2022/12/12 00:59:29;;;;;;;40.17;28.00;;;;;;;1.96;66.81;100524.97;677441;29;1226;-82
2022/12/12 00:59:49;;;;;;;39.00;26.42;;;;;;;2.00;66.96;100530.41;675015;29;864;-82
2022/12/12 01:00:13;;;;;;;38.40;25.50;;;;;;;1.95;67.45;100525.78;675206;29;1284;-82
2022/12/12 01:00:34;;;;;;;38.38;25.15;;;;;;;1.97;67.24;100526.75;672376;29;1202;-82
2022/12/12 01:00:55;;;;;;;39.03;26.02;;;;;;;1.95;67.34;100530.94;680276;29;1204;-82
2022/12/12 01:01:26;;;;;;;38.92;26.65;;;;;;;1.95;67.04;100529.22;677387;29;1062;-82
2022/12/12 01:01:47;;;;;;;35.65;26.10;;;;;;;1.87;67.05;100518.50;682948;29;1158;-82
2022/12/12 01:02:07;;;;;;;38.03;27.08;;;;;;;1.88;66.93;100517.69;682890;29;1205;-82
2022/12/12 01:02:28;;;;;;;38.17;26.73;;;;;;;1.91;66.98;100523.00;682852;29;1127;-82
2022/12/12 01:02:48;;;;;;;37.00;25.75;;;;;;;1.93;67.57;100527.34;677637;29;1211;-82
2022/12/12 01:03:09;;;;;;;35.47;24.95;;;;;;;1.88;67.28;100520.25;677612;29;1139;-82
2022/12/12 01:03:32;;;;;;;35.00;24.90;;;;;;;1.94;67.16;100530.03;674961;29;1509;-82
2022/12/12 01:03:53;;;;;;;37.58;25.98;;;;;;;1.96;67.10;100530.13;675160;29;926;-82
2022/12/12 01:04:13;;;;;;;37.85;26.15;;;;;;;1.97;66.97;100529.31;677636;29;1123;-82
2022/12/12 01:04:34;;;;;;;38.08;26.33;;;;;;;1.95;67.30;100525.78;677581;29;920;-82
2022/12/12 01:04:55;;;;;;;36.30;25.92;;;;;;;1.99;66.97;100532.88;680504;29;772;-82
2022/12/12 01:05:17;;;;;;;35.07;25.73;;;;;;;1.96;67.25;100524.97;677644;29;1075;-82
2022/12/12 01:05:37;;;;;;;35.17;25.48;;;;;;;1.94;67.09;100524.00;680196;29;1094;-82
2022/12/12 01:05:58;;;;;;;37.23;26.60;;;;;;;1.94;67.28;100524.00;677771;29;1167;-82
2022/12/12 01:06:20;;;;;;;37.20;27.15;;;;;;;2.03;67.47;100538.28;677711;29;1075;-82
2022/12/12 01:06:58;;;;;;;37.55;26.55;;;;;;;1.96;66.85;100527.56;677665;29;864;-82
2022/12/12 01:07:18;;;;;;;36.42;25.38;;;;;;;1.96;67.09;100530.13;672331;29;1521;-82
2022/12/12 01:07:39;;;;;;;35.53;25.90;;;;;;;1.98;67.02;100531.09;677720;29;1432;-82
2022/12/12 01:08:00;;;;;;;35.60;26.08;;;;;;;1.96;66.88;100524.97;680222;29;1283;-82
2022/12/12 01:08:20;;;;;;;36.80;27.20;;;;;;;1.96;67.07;100524.97;682931;29;1083;-83
2022/12/12 01:08:41;;;;;;;37.38;27.00;;;;;;;1.94;67.18;100521.44;682825;29;1201;-81
2022/12/12 01:09:02;;;;;;;38.35;27.15;;;;;;;1.94;67.37;100524.88;677709;29;1197;-81
2022/12/12 01:09:23;;;;;;;39.60;27.25;;;;;;;1.96;67.40;100528.44;675021;29;1517;-81
2022/12/12 01:09:43;;;;;;;40.60;27.63;;;;;;;1.97;67.22;100532.81;676933;29;1172;-82
2022/12/12 01:10:05;;;;;;;40.20;28.17;;;;;;;2.01;66.83;100537.31;677602;29;1272;-82
2022/12/12 01:10:25;;;;;;;40.65;28.38;;;;;;;1.99;67.33;100538.91;674911;29;2033;-82
2022/12/12 01:10:46;;;;;;;39.30;28.33;;;;;;;1.96;67.09;100527.56;675021;29;1225;-82
2022/12/12 01:11:10;;;;;;;38.90;28.03;;;;;;;1.97;67.33;100540.53;672810;29;1330;-82
2022/12/12 01:11:30;;;;;;;37.67;27.42;;;;;;;1.94;67.27;100527.47;672842;29;1221;-82
2022/12/12 01:11:51;;;;;;;39.00;27.67;;;;;;;1.96;67.44;100524.97;675668;29;752;-82
2022/12/12 01:12:11;;;;;;;39.83;28.13;;;;;;;1.95;67.19;100528.34;675424;29;1164;-81
2022/12/12 01:12:32;;;;;;;38.95;27.73;;;;;;;1.94;67.41;100524.00;678086;29;1018;-82
2022/12/12 01:12:52;;;;;;;38.95;26.70;;;;;;;2.02;67.42;100540.78;680758;29;859;-82
2022/12/12 01:13:13;;;;;;;38.73;26.60;;;;;;;2.00;67.44;100537.22;678056;29;1109;-82
2022/12/12 01:13:34;;;;;;;39.38;26.85;;;;;;;1.95;67.50;100526.66;680685;29;1145;-82
2022/12/12 01:13:55;;;;;;;39.15;27.45;;;;;;;2.04;67.13;100541.75;680774;29;999;-82
2022/12/12 01:14:16;;;;;;;38.50;27.15;;;;;;;1.98;67.35;100537.16;680623;29;1109;-82
2022/12/12 01:14:36;;;;;;;39.10;27.33;;;;;;;2.00;67.15;100535.53;683404;29;1161;-82
2022/12/12 01:14:57;;;;;;;39.05;26.60;;;;;;;1.96;67.55;100530.13;680768;29;1200;-82
2022/12/12 01:15:17;;;;;;;39.80;26.73;;;;;;;2.00;67.64;100537.22;675563;29;1194;-82
2022/12/12 01:15:38;;;;;;;40.00;26.47;;;;;;;2.00;67.39;100538.13;678078;29;1911;-82
2022/12/12 01:15:59;;;;;;;39.83;27.40;;;;;;;2.04;67.33;100546.91;678233;29;1210;-82
2022/12/12 01:16:21;;;;;;;39.42;27.20;;;;;;;2.05;67.24;100548.69;677898;29;1143;-82
2022/12/12 01:16:41;;;;;;;40.00;27.40;;;;;;;1.95;67.08;100526.66;675336;29;1163;-82
2022/12/12 01:17:02;;;;;;;39.20;26.37;;;;;;;1.99;67.01;100532.88;675238;29;1266;-82
2022/12/12 01:17:23;;;;;;;37.53;26.02;;;;;;;2.01;67.46;100539.03;672781;29;1165;-82
2022/12/12 01:17:43;;;;;;;37.60;25.83;;;;;;;1.95;67.53;100530.94;678111;29;1205;-82
2022/12/12 01:18:04;;;;;;;38.90;27.40;;;;;;;2.02;67.50;100538.22;675603;29;1054;-82
2022/12/12 01:18:25;;;;;;;40.42;28.55;;;;;;;2.02;67.49;100541.66;675346;29;1093;-82
2022/12/12 01:18:45;;;;;;;40.08;29.08;;;;;;;2.08;67.32;100545.41;680782;29;1125;-82
2022/12/12 01:19:06;;;;;;;41.08;28.88;;;;;;;2.07;67.41;100546.22;678091;29;1334;-82
2022/12/12 01:19:27;;;;;;;42.10;29.38;;;;;;;1.99;67.55;100535.44;680630;29;1202;-82
2022/12/12 01:19:47;;;;;;;41.00;28.73;;;;;;;1.98;67.28;100532.00;680775;29;1187;-82
2022/12/12 01:20:19;;;;;;;40.72;28.70;;;;;;;1.96;67.59;100532.69;677489;29;1265;-82
2022/12/12 01:20:40;;;;;;;39.75;28.00;;;;;;;1.94;67.42;100536.88;675478;29;1101;-81
2022/12/12 01:21:01;;;;;;;40.50;28.25;;;;;;;2.00;67.29;100539.78;675651;29;1234;-82
2022/12/12 01:21:21;;;;;;;41.88;29.38;;;;;;;2.01;67.25;100539.03;675383;29;1157;-82
2022/12/12 01:21:42;;;;;;;41.78;29.48;;;;;;;2.00;67.40;100539.78;678101;29;880;-82
2022/12/12 01:22:03;;;;;;;41.63;29.00;;;;;;;2.01;67.83;100536.44;680511;29;1235;-82
2022/12/12 01:22:23;;;;;;;42.22;28.63;;;;;;;2.02;67.36;100545.94;677834;29;1195;-82
2022/12/12 01:22:44;;;;;;;41.40;27.98;;;;;;;1.97;67.45;100529.31;680665;29;1433;-82
2022/12/12 01:23:05;;;;;;;39.22;27.17;;;;;;;1.99;67.46;100533.78;680822;29;1049;-82
2022/12/12 01:23:25;;;;;;;37.63;26.65;;;;;;;2.00;67.64;100543.25;675291;29;1399;-82
2022/12/12 01:23:47;;;;;;;36.70;26.53;;;;;;;1.97;67.54;100531.91;675659;29;678;-82
2022/12/12 01:24:07;;;;;;;39.00;27.67;;;;;;;1.99;67.68;100535.44;675491;29;976;-82
2022/12/12 01:24:28;;;;;;;37.80;27.40;;;;;;;1.96;67.77;100533.56;678146;29;1128;-82
2022/12/12 01:24:48;;;;;;;37.92;27.15;;;;;;;2.00;67.74;100535.53;678567;29;772;-82
2022/12/12 01:25:11;;;;;;;37.40;26.30;;;;;;;1.99;67.56;100531.19;675398;29;1359;-82
2022/12/12 01:25:32;;;;;;;40.13;27.33;;;;;;;1.99;67.77;100536.34;675364;29;1364;-82
2022/12/12 01:26:03;;;;;;;41.53;28.42;;;;;;;2.03;67.39;100542.56;678073;29;1432;-82
2022/12/12 01:26:24;;;;;;;40.80;27.60;;;;;;;1.98;67.66;100532.00;677866;29;1145;-82
2022/12/12 01:26:44;;;;;;;38.97;26.83;;;;;;;2.00;67.85;100539.78;680600;29;1359;-82
2022/12/12 01:27:05;;;;;;;38.10;27.25;;;;;;;1.98;67.61;100533.66;680599;29;1096;-82
2022/12/12 01:27:26;;;;;;;37.28;27.10;;;;;;;1.97;67.71;100534.47;680605;29;1171;-82
2022/12/12 01:27:47;;;;;;;39.22;27.52;;;;;;;1.99;67.32;100533.78;675538;29;1089;-82
2022/12/12 01:28:09;;;;;;;38.88;27.17;;;;;;;2.02;67.53;100544.25;672894;29;1070;-82
2022/12/12 01:28:30;;;;;;;40.08;27.95;;;;;;;1.98;67.62;100536.25;675310;29;1026;-82
2022/12/12 01:28:51;;;;;;;39.70;28.20;;;;;;;2.05;67.70;100543.53;672906;29;836;-82
2022/12/12 01:29:12;;;;;;;38.92;28.38;;;;;;;1.99;67.54;100538.03;670424;29;1182;-82
2022/12/12 01:29:34;;;;;;;37.30;27.90;;;;;;;2.05;67.52;100548.69;675484;29;1428;-82
2022/12/12 01:29:57;;;;;;;38.17;27.88;;;;;;;2.04;67.24;100550.34;675430;29;1115;-82
2022/12/12 01:30:20;;;;;;;37.75;27.58;;;;;;;1.98;67.45;100531.09;675288;29;1300;-82
2022/12/12 01:30:41;;;;;;;39.38;27.90;;;;;;;1.97;67.08;100537.06;672948;29;944;-82
2022/12/12 01:31:01;;;;;;;39.22;27.30;;;;;;;2.04;67.43;100544.34;672973;29;1075;-82
2022/12/12 01:31:22;;;;;;;39.40;27.00;;;;;;;2.02;67.44;100538.22;672879;29;966;-82
2022/12/12 01:31:43;;;;;;;36.10;26.77;;;;;;;1.97;67.12;100539.63;673010;29;777;-82
2022/12/12 01:32:04;;;;;;;37.38;26.58;;;;;;;2.02;67.72;100551.09;673009;29;1269;-82
2022/12/12 01:32:25;;;;;;;37.33;26.20;;;;;;;2.00;67.43;100544.94;672707;29;1175;-82
2022/12/12 01:32:45;;;;;;;39.25;26.48;;;;;;;2.04;67.68;100545.22;669425;29;1102;-82
2022/12/12 01:33:06;;;;;;;40.08;26.63;;;;;;;2.02;67.35;100544.25;670296;29;1347;-83
2022/12/12 01:33:27;;;;;;;41.37;27.10;;;;;;;2.04;67.47;100542.63;672929;29;1355;-82
2022/12/12 01:33:47;;;;;;;40.33;27.23;;;;;;;2.04;67.59;100544.34;673072;29;759;-82
2022/12/12 01:34:08;;;;;;;39.43;27.57;;;;;;;2.01;67.59;100539.03;672888;29;1210;-82
2022/12/12 01:34:29;;;;;;;39.00;27.60;;;;;;;2.02;67.05;100543.38;672818;29;1060;-82
2022/12/12 01:34:49;;;;;;;39.47;27.48;;;;;;;1.96;67.19;100535.28;672901;29;1247;-82
2022/12/12 01:35:10;;;;;;;39.70;26.90;;;;;;;2.06;67.91;100550.44;678032;29;1193;-82
2022/12/12 01:35:33;;;;;;;38.60;25.90;;;;;;;1.96;67.20;100537.84;675326;29;1972;-81
2022/12/12 01:35:53;;;;;;;39.50;25.95;;;;;;;2.01;67.60;100541.59;672971;29;887;-82
2022/12/12 01:36:17;;;;;;;38.95;26.67;;;;;;;2.05;67.30;100553.84;675379;29;1190;-81
2022/12/12 01:36:38;;;;;;;39.97;27.60;;;;;;;2.02;67.82;100549.38;672761;29;1355;-82
2022/12/12 01:36:58;;;;;;;40.27;27.87;;;;;;;1.97;67.33;100534.47;675511;29;1245;-82
2022/12/12 01:37:19;;;;;;;39.50;27.75;;;;;;;2.01;67.35;100541.59;675239;29;1204;-82
2022/12/12 01:37:40;;;;;;;39.78;27.90;;;;;;;2.04;67.36;100546.91;678092;29;1296;-82
2022/12/12 01:38:00;;;;;;;39.75;27.65;;;;;;;2.03;67.42;100545.13;675582;29;832;-82
2022/12/12 01:38:23;;;;;;;39.90;27.57;;;;;;;2.02;67.42;100548.50;672770;29;1162;-82
2022/12/12 01:38:45;;;;;;;39.17;26.92;;;;;;;2.04;67.59;100549.50;672850;29;1341;-82
2022/12/12 01:39:05;;;;;;;38.70;27.02;;;;;;;2.04;67.25;100552.94;672718;29;1374;-82
2022/12/12 01:39:26;;;;;;;38.75;26.92;;;;;;;2.02;67.34;100544.25;672688;29;1340;-82
2022/12/12 01:39:47;;;;;;;37.33;26.80;;;;;;;2.00;67.45;100544.94;680727;29;1357;-82
2022/12/12 01:40:14;;;;;;;37.03;27.23;;;;;;;2.02;67.50;100551.09;678090;29;1076;-82
2022/12/12 01:40:35;;;;;;;38.28;28.20;;;;;;;2.01;67.53;100552.75;680694;29;1105;-82
2022/12/12 01:40:56;;;;;;;39.72;28.98;;;;;;;2.02;67.42;100553.66;680836;29;840;-82
2022/12/12 01:41:17;;;;;;;37.80;27.60;;;;;;;1.99;67.59;100548.31;675424;29;1092;-82